sensor_id;sensor_type;location;lat;lon;timestamp;temperature;humidity
78649;DHT22;67962;47.310;9.642;2023-07-20T00:01:24;24.00;48.00
78649;DHT22;67962;47.310;9.642;2023-07-20T00:03:50;24.00;47.30
78649;DHT22;67962;47.310;9.642;2023-07-20T00:06:29;24.00;46.80
78649;DHT22;67962;47.310;9.642;2023-07-20T00:08:55;23.90;46.50
78649;DHT22;67962;47.310;9.642;2023-07-20T00:11:25;23.80;45.90
78649;DHT22;67962;47.310;9.642;2023-07-20T00:13:51;23.80;45.20
78649;DHT22;67962;47.310;9.642;2023-07-20T00:16:16;23.80;45.60
78649;DHT22;67962;47.310;9.642;2023-07-20T00:18:42;23.80;46.50
78649;DHT22;67962;47.310;9.642;2023-07-20T00:21:08;23.80;46.20
78649;DHT22;67962;47.310;9.642;2023-07-20T00:23:33;23.70;46.40
78649;DHT22;67962;47.310;9.642;2023-07-20T00:25:59;23.70;46.40
78649;DHT22;67962;47.310;9.642;2023-07-20T00:28:25;23.80;46.70
78649;DHT22;67962;47.310;9.642;2023-07-20T00:30:50;23.80;47.50
78649;DHT22;67962;47.310;9.642;2023-07-20T00:33:17;23.80;46.80
78649;DHT22;67962;47.310;9.642;2023-07-20T00:35:43;23.80;46.50
78649;DHT22;67962;47.310;9.642;2023-07-20T00:38:09;23.70;46.40
78649;DHT22;67962;47.310;9.642;2023-07-20T00:40:39;23.70;46.90
78649;DHT22;67962;47.310;9.642;2023-07-20T00:43:06;23.70;47.70
78649;DHT22;67962;47.310;9.642;2023-07-20T00:45:33;23.60;48.10
78649;DHT22;67962;47.310;9.642;2023-07-20T00:47:59;23.60;48.60
78649;DHT22;67962;47.310;9.642;2023-07-20T00:50:27;23.40;50.40
78649;DHT22;67962;47.310;9.642;2023-07-20T00:52:54;23.30;49.90
78649;DHT22;67962;47.310;9.642;2023-07-20T00:55:20;23.30;50.30
78649;DHT22;67962;47.310;9.642;2023-07-20T00:57:46;23.30;50.90
78649;DHT22;67962;47.310;9.642;2023-07-20T01:00:12;23.30;51.30
78649;DHT22;67962;47.310;9.642;2023-07-20T01:02:38;23.30;51.80
78649;DHT22;67962;47.310;9.642;2023-07-20T01:05:05;23.30;51.80
78649;DHT22;67962;47.310;9.642;2023-07-20T01:07:57;23.20;52.50
78649;DHT22;67962;47.310;9.642;2023-07-20T01:13:00;23.20;51.10
78649;DHT22;67962;47.310;9.642;2023-07-20T01:15:27;23.20;51.50
78649;DHT22;67962;47.310;9.642;2023-07-20T01:17:53;23.10;51.30
78649;DHT22;67962;47.310;9.642;2023-07-20T01:20:20;23.20;50.40
78649;DHT22;67962;47.310;9.642;2023-07-20T01:33:41;23.30;48.50
78649;DHT22;67962;47.310;9.642;2023-07-20T01:36:08;23.30;48.40
78649;DHT22;67962;47.310;9.642;2023-07-20T01:38:36;23.40;47.40
78649;DHT22;67962;47.310;9.642;2023-07-20T01:41:03;23.40;48.40
78649;DHT22;67962;47.310;9.642;2023-07-20T01:43:29;23.40;48.20
78649;DHT22;67962;47.310;9.642;2023-07-20T01:45:54;23.40;47.60
78649;DHT22;67962;47.310;9.642;2023-07-20T01:48:20;23.50;47.30
78649;DHT22;67962;47.310;9.642;2023-07-20T01:50:46;23.40;48.10
78649;DHT22;67962;47.310;9.642;2023-07-20T01:53:12;23.40;47.30
78649;DHT22;67962;47.310;9.642;2023-07-20T01:55:37;23.40;47.90
78649;DHT22;67962;47.310;9.642;2023-07-20T01:58:03;23.40;48.80
78649;DHT22;67962;47.310;9.642;2023-07-20T02:00:29;23.30;48.80
78649;DHT22;67962;47.310;9.642;2023-07-20T02:02:55;23.40;48.60
78649;DHT22;67962;47.310;9.642;2023-07-20T02:05:21;23.40;47.90
78649;DHT22;67962;47.310;9.642;2023-07-20T02:07:46;23.40;47.70
78649;DHT22;67962;47.310;9.642;2023-07-20T02:10:12;23.40;47.30
78649;DHT22;67962;47.310;9.642;2023-07-20T02:12:38;23.40;48.20
78649;DHT22;67962;47.310;9.642;2023-07-20T02:15:04;23.40;47.80
78649;DHT22;67962;47.310;9.642;2023-07-20T02:17:30;23.40;48.00
78649;DHT22;67962;47.310;9.642;2023-07-20T02:19:58;23.40;47.80
78649;DHT22;67962;47.310;9.642;2023-07-20T02:22:24;23.40;48.00
78649;DHT22;67962;47.310;9.642;2023-07-20T02:24:50;23.40;47.90
78649;DHT22;67962;47.310;9.642;2023-07-20T02:27:16;23.40;48.00
78649;DHT22;67962;47.310;9.642;2023-07-20T02:29:42;23.40;47.90
78649;DHT22;67962;47.310;9.642;2023-07-20T02:32:08;23.40;48.60
78649;DHT22;67962;47.310;9.642;2023-07-20T02:34:35;23.40;48.80
78649;DHT22;67962;47.310;9.642;2023-07-20T02:37:01;23.40;48.50
78649;DHT22;67962;47.310;9.642;2023-07-20T02:39:28;23.40;48.00
78649;DHT22;67962;47.310;9.642;2023-07-20T02:41:54;23.40;48.10
78649;DHT22;67962;47.310;9.642;2023-07-20T02:44:19;23.30;49.00
78649;DHT22;67962;47.310;9.642;2023-07-20T02:46:45;23.30;48.80
78649;DHT22;67962;47.310;9.642;2023-07-20T02:49:11;23.20;49.30
78649;DHT22;67962;47.310;9.642;2023-07-20T02:51:37;23.10;49.70
78649;DHT22;67962;47.310;9.642;2023-07-20T02:54:03;23.00;49.90
78649;DHT22;67962;47.310;9.642;2023-07-20T02:56:29;22.90;50.00
78649;DHT22;67962;47.310;9.642;2023-07-20T02:58:55;22.80;50.80
78649;DHT22;67962;47.310;9.642;2023-07-20T03:01:21;22.70;50.60
78649;DHT22;67962;47.310;9.642;2023-07-20T03:03:46;22.70;50.30
78649;DHT22;67962;47.310;9.642;2023-07-20T03:06:16;22.70;50.60
78649;DHT22;67962;47.310;9.642;2023-07-20T03:08:43;22.70;50.20
78649;DHT22;67962;47.310;9.642;2023-07-20T03:11:18;22.70;49.70
78649;DHT22;67962;47.310;9.642;2023-07-20T03:13:44;22.60;50.00
78649;DHT22;67962;47.310;9.642;2023-07-20T03:16:11;22.60;50.00
78649;DHT22;67962;47.310;9.642;2023-07-20T03:18:41;22.70;49.90
78649;DHT22;67962;47.310;9.642;2023-07-20T03:21:09;22.70;49.90
78649;DHT22;67962;47.310;9.642;2023-07-20T03:23:37;22.80;49.40
78649;DHT22;67962;47.310;9.642;2023-07-20T03:26:02;22.70;50.10
78649;DHT22;67962;47.310;9.642;2023-07-20T03:28:28;22.70;49.80
78649;DHT22;67962;47.310;9.642;2023-07-20T03:30:57;22.70;50.20
78649;DHT22;67962;47.310;9.642;2023-07-20T03:33:27;22.60;52.30
78649;DHT22;67962;47.310;9.642;2023-07-20T03:35:54;22.60;52.20
78649;DHT22;67962;47.310;9.642;2023-07-20T03:38:21;22.60;52.50
78649;DHT22;67962;47.310;9.642;2023-07-20T03:43:16;22.60;53.40
78649;DHT22;67962;47.310;9.642;2023-07-20T03:45:42;22.50;54.30
78649;DHT22;67962;47.310;9.642;2023-07-20T03:48:08;22.60;54.60
78649;DHT22;67962;47.310;9.642;2023-07-20T03:50:34;22.50;56.20
78649;DHT22;67962;47.310;9.642;2023-07-20T03:52:59;22.40;56.70
78649;DHT22;67962;47.310;9.642;2023-07-20T03:55:25;22.20;56.60
78649;DHT22;67962;47.310;9.642;2023-07-20T03:57:51;22.10;57.50
78649;DHT22;67962;47.310;9.642;2023-07-20T04:00:17;22.10;57.70
78649;DHT22;67962;47.310;9.642;2023-07-20T04:02:43;22.10;57.40
78649;DHT22;67962;47.310;9.642;2023-07-20T04:05:09;22.20;56.90
78649;DHT22;67962;47.310;9.642;2023-07-20T04:07:35;22.10;56.40
78649;DHT22;67962;47.310;9.642;2023-07-20T04:10:00;22.00;57.80
78649;DHT22;67962;47.310;9.642;2023-07-20T04:12:26;21.90;56.80
78649;DHT22;67962;47.310;9.642;2023-07-20T04:14:52;21.90;57.00
78649;DHT22;67962;47.310;9.642;2023-07-20T04:17:18;21.90;57.40
78649;DHT22;67962;47.310;9.642;2023-07-20T04:19:44;21.90;56.70
78649;DHT22;67962;47.310;9.642;2023-07-20T04:22:10;22.00;55.70
78649;DHT22;67962;47.310;9.642;2023-07-20T04:24:35;22.00;55.50
78649;DHT22;67962;47.310;9.642;2023-07-20T04:27:01;22.10;54.80
78649;DHT22;67962;47.310;9.642;2023-07-20T04:29:27;22.10;54.90
78649;DHT22;67962;47.310;9.642;2023-07-20T04:31:52;22.10;54.90
78649;DHT22;67962;47.310;9.642;2023-07-20T04:34:18;22.10;54.60
78649;DHT22;67962;47.310;9.642;2023-07-20T04:36:44;22.20;54.50
78649;DHT22;67962;47.310;9.642;2023-07-20T04:39:10;22.20;54.40
78649;DHT22;67962;47.310;9.642;2023-07-20T04:41:36;22.30;54.00
78649;DHT22;67962;47.310;9.642;2023-07-20T04:44:02;22.20;53.70
78649;DHT22;67962;47.310;9.642;2023-07-20T04:46:28;22.20;53.40
78649;DHT22;67962;47.310;9.642;2023-07-20T04:48:53;22.30;53.10
78649;DHT22;67962;47.310;9.642;2023-07-20T04:51:19;22.30;53.10
78649;DHT22;67962;47.310;9.642;2023-07-20T04:53:49;22.30;52.90
78649;DHT22;67962;47.310;9.642;2023-07-20T04:56:14;22.30;52.80
78649;DHT22;67962;47.310;9.642;2023-07-20T04:58:40;22.30;52.80
78649;DHT22;67962;47.310;9.642;2023-07-20T05:01:06;22.20;52.20
78649;DHT22;67962;47.310;9.642;2023-07-20T05:03:31;22.20;51.50
78649;DHT22;67962;47.310;9.642;2023-07-20T05:05:57;22.20;51.90
78649;DHT22;67962;47.310;9.642;2023-07-20T05:08:23;22.20;51.70
78649;DHT22;67962;47.310;9.642;2023-07-20T05:10:49;22.20;51.70
78649;DHT22;67962;47.310;9.642;2023-07-20T05:13:15;22.10;52.60
78649;DHT22;67962;47.310;9.642;2023-07-20T05:15:41;22.10;52.40
78649;DHT22;67962;47.310;9.642;2023-07-20T05:18:06;22.00;52.70
78649;DHT22;67962;47.310;9.642;2023-07-20T05:20:34;22.00;51.50
78649;DHT22;67962;47.310;9.642;2023-07-20T05:23:00;22.00;51.80
78649;DHT22;67962;47.310;9.642;2023-07-20T05:25:27;22.00;52.00
78649;DHT22;67962;47.310;9.642;2023-07-20T05:27:52;22.10;52.80
78649;DHT22;67962;47.310;9.642;2023-07-20T05:30:20;22.20;53.10
78649;DHT22;67962;47.310;9.642;2023-07-20T05:32:46;22.10;52.40
78649;DHT22;67962;47.310;9.642;2023-07-20T05:35:17;22.10;51.60
78649;DHT22;67962;47.310;9.642;2023-07-20T05:37:43;22.00;52.20
78649;DHT22;67962;47.310;9.642;2023-07-20T05:40:09;22.00;52.90
78649;DHT22;67962;47.310;9.642;2023-07-20T05:42:38;22.00;53.50
78649;DHT22;67962;47.310;9.642;2023-07-20T05:45:04;22.00;54.00
78649;DHT22;67962;47.310;9.642;2023-07-20T05:47:30;22.00;52.60
78649;DHT22;67962;47.310;9.642;2023-07-20T05:49:56;22.00;52.50
78649;DHT22;67962;47.310;9.642;2023-07-20T05:52:21;22.00;52.40
78649;DHT22;67962;47.310;9.642;2023-07-20T05:54:47;22.00;52.00
78649;DHT22;67962;47.310;9.642;2023-07-20T05:57:13;22.10;53.20
78649;DHT22;67962;47.310;9.642;2023-07-20T05:59:38;22.00;53.20
78649;DHT22;67962;47.310;9.642;2023-07-20T06:02:06;22.10;52.40
78649;DHT22;67962;47.310;9.642;2023-07-20T06:04:33;22.10;52.30
78649;DHT22;67962;47.310;9.642;2023-07-20T06:06:59;22.20;51.70
78649;DHT22;67962;47.310;9.642;2023-07-20T06:09:25;22.20;51.70
78649;DHT22;67962;47.310;9.642;2023-07-20T06:11:50;22.40;51.30
78649;DHT22;67962;47.310;9.642;2023-07-20T06:14:16;22.40;52.10
78649;DHT22;67962;47.310;9.642;2023-07-20T06:16:42;22.50;52.50
78649;DHT22;67962;47.310;9.642;2023-07-20T06:19:07;22.60;51.70
78649;DHT22;67962;47.310;9.642;2023-07-20T06:21:33;22.80;51.50
78649;DHT22;67962;47.310;9.642;2023-07-20T06:23:59;22.90;50.50
78649;DHT22;67962;47.310;9.642;2023-07-20T06:26:24;22.90;50.10
78649;DHT22;67962;47.310;9.642;2023-07-20T06:28:50;22.90;50.90
78649;DHT22;67962;47.310;9.642;2023-07-20T06:31:16;23.00;52.10
78649;DHT22;67962;47.310;9.642;2023-07-20T06:33:42;23.10;52.50
78649;DHT22;67962;47.310;9.642;2023-07-20T06:36:07;22.90;50.70
78649;DHT22;67962;47.310;9.642;2023-07-20T06:38:33;22.80;52.50
78649;DHT22;67962;47.310;9.642;2023-07-20T06:40:59;22.80;51.50
78649;DHT22;67962;47.310;9.642;2023-07-20T06:43:24;22.90;51.50
78649;DHT22;67962;47.310;9.642;2023-07-20T06:45:53;22.90;51.70
78649;DHT22;67962;47.310;9.642;2023-07-20T06:48:20;23.00;51.10
78649;DHT22;67962;47.310;9.642;2023-07-20T06:50:45;23.50;50.80
78649;DHT22;67962;47.310;9.642;2023-07-20T06:53:11;23.90;50.00
78649;DHT22;67962;47.310;9.642;2023-07-20T06:55:37;24.20;49.20
78649;DHT22;67962;47.310;9.642;2023-07-20T06:58:02;24.20;49.10
78649;DHT22;67962;47.310;9.642;2023-07-20T07:00:28;24.10;47.40
78649;DHT22;67962;47.310;9.642;2023-07-20T07:02:54;24.10;48.40
78649;DHT22;67962;47.310;9.642;2023-07-20T07:05:19;24.20;48.50
78649;DHT22;67962;47.310;9.642;2023-07-20T07:07:45;24.20;48.50
78649;DHT22;67962;47.310;9.642;2023-07-20T07:10:11;24.50;48.70
78649;DHT22;67962;47.310;9.642;2023-07-20T07:12:37;24.60;46.90
78649;DHT22;67962;47.310;9.642;2023-07-20T07:15:04;24.90;45.00
78649;DHT22;67962;47.310;9.642;2023-07-20T07:17:32;24.90;44.00
78649;DHT22;67962;47.310;9.642;2023-07-20T07:19:58;25.00;44.30
78649;DHT22;67962;47.310;9.642;2023-07-20T07:22:24;25.20;43.80
78649;DHT22;67962;47.310;9.642;2023-07-20T07:24:49;25.40;43.10
78649;DHT22;67962;47.310;9.642;2023-07-20T07:27:15;25.40;44.40
78649;DHT22;67962;47.310;9.642;2023-07-20T07:29:43;25.80;42.40
78649;DHT22;67962;47.310;9.642;2023-07-20T07:32:14;25.80;41.40
78649;DHT22;67962;47.310;9.642;2023-07-20T07:34:40;26.00;41.30
78649;DHT22;67962;47.310;9.642;2023-07-20T07:37:06;26.00;40.80
78649;DHT22;67962;47.310;9.642;2023-07-20T07:39:32;26.10;41.40
78649;DHT22;67962;47.310;9.642;2023-07-20T07:41:57;26.20;41.40
78649;DHT22;67962;47.310;9.642;2023-07-20T07:44:25;26.40;41.20
78649;DHT22;67962;47.310;9.642;2023-07-20T07:46:51;26.60;41.70
78649;DHT22;67962;47.310;9.642;2023-07-20T07:49:17;26.90;40.50
78649;DHT22;67962;47.310;9.642;2023-07-20T07:51:44;27.20;40.50
78649;DHT22;67962;47.310;9.642;2023-07-20T07:54:10;27.40;39.40
78649;DHT22;67962;47.310;9.642;2023-07-20T07:56:36;27.40;39.40
78649;DHT22;67962;47.310;9.642;2023-07-20T07:59:02;27.40;37.50
78649;DHT22;67962;47.310;9.642;2023-07-20T08:01:28;27.50;38.50
78649;DHT22;67962;47.310;9.642;2023-07-20T08:03:54;27.60;36.90
78649;DHT22;67962;47.310;9.642;2023-07-20T08:06:20;27.70;39.40
78649;DHT22;67962;47.310;9.642;2023-07-20T08:08:45;27.80;37.00
78649;DHT22;67962;47.310;9.642;2023-07-20T08:11:11;27.60;35.90
78649;DHT22;67962;47.310;9.642;2023-07-20T08:13:37;27.50;35.80
78649;DHT22;67962;47.310;9.642;2023-07-20T08:16:03;27.40;37.50
78649;DHT22;67962;47.310;9.642;2023-07-20T08:18:28;27.50;38.60
78649;DHT22;67962;47.310;9.642;2023-07-20T08:20:54;27.90;38.50
78649;DHT22;67962;47.310;9.642;2023-07-20T08:23:20;27.90;37.30
78649;DHT22;67962;47.310;9.642;2023-07-20T08:25:46;27.80;37.40
78649;DHT22;67962;47.310;9.642;2023-07-20T08:28:16;27.90;37.50
78649;DHT22;67962;47.310;9.642;2023-07-20T08:33:08;27.60;37.50
78649;DHT22;67962;47.310;9.642;2023-07-20T08:35:33;27.50;37.70
78649;DHT22;67962;47.310;9.642;2023-07-20T08:37:59;27.30;37.60
78649;DHT22;67962;47.310;9.642;2023-07-20T08:40:25;27.50;38.10
78649;DHT22;67962;47.310;9.642;2023-07-20T08:42:50;27.90;38.10
78649;DHT22;67962;47.310;9.642;2023-07-20T08:45:17;28.30;35.90
78649;DHT22;67962;47.310;9.642;2023-07-20T08:47:45;28.20;35.90
78649;DHT22;67962;47.310;9.642;2023-07-20T08:50:11;28.20;37.80
78649;DHT22;67962;47.310;9.642;2023-07-20T08:52:38;28.20;36.60
78649;DHT22;67962;47.310;9.642;2023-07-20T08:55:04;28.10;35.60
78649;DHT22;67962;47.310;9.642;2023-07-20T08:57:33;28.20;35.80
78649;DHT22;67962;47.310;9.642;2023-07-20T09:00:02;28.40;37.50
78649;DHT22;67962;47.310;9.642;2023-07-20T09:02:32;28.50;36.50
78649;DHT22;67962;47.310;9.642;2023-07-20T09:05:00;28.50;35.20
78649;DHT22;67962;47.310;9.642;2023-07-20T09:07:26;28.60;35.30
78649;DHT22;67962;47.310;9.642;2023-07-20T09:09:52;28.70;35.60
78649;DHT22;67962;47.310;9.642;2023-07-20T09:12:18;29.00;37.40
78649;DHT22;67962;47.310;9.642;2023-07-20T09:14:44;29.20;34.70
78649;DHT22;67962;47.310;9.642;2023-07-20T09:17:14;29.30;35.00
78649;DHT22;67962;47.310;9.642;2023-07-20T09:19:47;29.40;33.70
78649;DHT22;67962;47.310;9.642;2023-07-20T09:22:13;29.40;35.20
78649;DHT22;67962;47.310;9.642;2023-07-20T09:24:39;29.40;34.40
78649;DHT22;67962;47.310;9.642;2023-07-20T09:27:05;29.60;35.40
78649;DHT22;67962;47.310;9.642;2023-07-20T09:29:31;29.60;34.90
78649;DHT22;67962;47.310;9.642;2023-07-20T09:32:04;29.50;35.30
78649;DHT22;67962;47.310;9.642;2023-07-20T09:34:32;29.60;35.50
78649;DHT22;67962;47.310;9.642;2023-07-20T09:36:59;29.70;34.80
78649;DHT22;67962;47.310;9.642;2023-07-20T09:39:26;30.10;35.30
78649;DHT22;67962;47.310;9.642;2023-07-20T09:41:51;30.50;35.10
78649;DHT22;67962;47.310;9.642;2023-07-20T09:44:18;30.60;35.10
78649;DHT22;67962;47.310;9.642;2023-07-20T09:46:48;30.80;34.40
78649;DHT22;67962;47.310;9.642;2023-07-20T09:49:14;30.70;32.40
78649;DHT22;67962;47.310;9.642;2023-07-20T09:51:40;30.60;33.90
78649;DHT22;67962;47.310;9.642;2023-07-20T09:54:07;30.40;33.70
78649;DHT22;67962;47.310;9.642;2023-07-20T09:56:35;30.40;31.30
78649;DHT22;67962;47.310;9.642;2023-07-20T09:59:00;30.40;33.10
78649;DHT22;67962;47.310;9.642;2023-07-20T10:01:26;30.40;32.60
78649;DHT22;67962;47.310;9.642;2023-07-20T10:03:54;30.00;34.00
78649;DHT22;67962;47.310;9.642;2023-07-20T10:06:24;29.90;34.30
78649;DHT22;67962;47.310;9.642;2023-07-20T10:08:53;30.30;34.10
78649;DHT22;67962;47.310;9.642;2023-07-20T10:11:22;30.70;34.50
78649;DHT22;67962;47.310;9.642;2023-07-20T10:13:53;30.70;33.50
78649;DHT22;67962;47.310;9.642;2023-07-20T10:16:34;30.80;33.70
78649;DHT22;67962;47.310;9.642;2023-07-20T10:19:13;31.00;32.40
78649;DHT22;67962;47.310;9.642;2023-07-20T10:21:47;30.90;32.20
78649;DHT22;67962;47.310;9.642;2023-07-20T10:24:13;30.70;33.60
78649;DHT22;67962;47.310;9.642;2023-07-20T10:26:40;30.90;33.40
78649;DHT22;67962;47.310;9.642;2023-07-20T10:29:05;31.20;32.90
78649;DHT22;67962;47.310;9.642;2023-07-20T10:31:32;31.20;30.40
78649;DHT22;67962;47.310;9.642;2023-07-20T10:33:59;31.10;31.50
78649;DHT22;67962;47.310;9.642;2023-07-20T10:36:26;31.20;31.20
78649;DHT22;67962;47.310;9.642;2023-07-20T10:38:56;31.00;31.10
78649;DHT22;67962;47.310;9.642;2023-07-20T10:41:37;30.70;31.10
78649;DHT22;67962;47.310;9.642;2023-07-20T10:44:07;30.50;31.80
78649;DHT22;67962;47.310;9.642;2023-07-20T10:49:09;30.50;32.90
78649;DHT22;67962;47.310;9.642;2023-07-20T10:51:40;30.40;33.30
78649;DHT22;67962;47.310;9.642;2023-07-20T10:57:21;30.10;31.60
78649;DHT22;67962;47.310;9.642;2023-07-20T10:59:47;29.80;33.10
78649;DHT22;67962;47.310;9.642;2023-07-20T11:02:13;29.70;32.50
78649;DHT22;67962;47.310;9.642;2023-07-20T11:04:45;29.40;32.90
78649;DHT22;67962;47.310;9.642;2023-07-20T11:07:15;29.40;33.60
78649;DHT22;67962;47.310;9.642;2023-07-20T11:09:42;29.80;34.30
78649;DHT22;67962;47.310;9.642;2023-07-20T11:14:41;30.30;31.00
78649;DHT22;67962;47.310;9.642;2023-07-20T11:17:15;30.10;32.40
78649;DHT22;67962;47.310;9.642;2023-07-20T11:19:41;30.10;32.90
78649;DHT22;67962;47.310;9.642;2023-07-20T11:22:08;30.10;33.20
78649;DHT22;67962;47.310;9.642;2023-07-20T11:24:34;30.30;33.10
78649;DHT22;67962;47.310;9.642;2023-07-20T11:27:03;29.90;31.80
78649;DHT22;67962;47.310;9.642;2023-07-20T11:29:29;29.90;32.20
78649;DHT22;67962;47.310;9.642;2023-07-20T11:31:56;30.10;33.30
78649;DHT22;67962;47.310;9.642;2023-07-20T11:34:22;30.20;33.00
78649;DHT22;67962;47.310;9.642;2023-07-20T11:36:50;30.20;31.50
78649;DHT22;67962;47.310;9.642;2023-07-20T11:39:17;30.10;31.70
78649;DHT22;67962;47.310;9.642;2023-07-20T11:41:49;30.10;33.60
78649;DHT22;67962;47.310;9.642;2023-07-20T11:44:16;30.10;31.80
78649;DHT22;67962;47.310;9.642;2023-07-20T11:46:43;29.90;32.40
78649;DHT22;67962;47.310;9.642;2023-07-20T11:49:12;30.00;33.20
78649;DHT22;67962;47.310;9.642;2023-07-20T11:51:39;29.80;32.20
78649;DHT22;67962;47.310;9.642;2023-07-20T11:54:07;29.60;34.20
78649;DHT22;67962;47.310;9.642;2023-07-20T11:56:33;29.70;31.60
78649;DHT22;67962;47.310;9.642;2023-07-20T11:58:59;29.70;32.10
78649;DHT22;67962;47.310;9.642;2023-07-20T12:01:27;29.70;31.80
78649;DHT22;67962;47.310;9.642;2023-07-20T12:04:02;29.60;32.20
78649;DHT22;67962;47.310;9.642;2023-07-20T12:06:29;29.60;33.50
78649;DHT22;67962;47.310;9.642;2023-07-20T12:08:56;29.60;33.10
78649;DHT22;67962;47.310;9.642;2023-07-20T12:11:36;29.60;32.90
78649;DHT22;67962;47.310;9.642;2023-07-20T12:14:03;29.40;31.80
78649;DHT22;67962;47.310;9.642;2023-07-20T12:16:30;29.20;32.40
78649;DHT22;67962;47.310;9.642;2023-07-20T12:19:02;29.20;33.60
78649;DHT22;67962;47.310;9.642;2023-07-20T12:21:29;29.00;32.10
78649;DHT22;67962;47.310;9.642;2023-07-20T12:23:59;28.90;33.00
78649;DHT22;67962;47.310;9.642;2023-07-20T12:26:25;28.80;33.20
78649;DHT22;67962;47.310;9.642;2023-07-20T12:28:52;29.00;35.10
78649;DHT22;67962;47.310;9.642;2023-07-20T12:31:18;29.20;34.00
78649;DHT22;67962;47.310;9.642;2023-07-20T12:33:44;29.00;32.00
78649;DHT22;67962;47.310;9.642;2023-07-20T12:36:10;28.90;33.30
78649;DHT22;67962;47.310;9.642;2023-07-20T12:38:36;29.00;33.50
78649;DHT22;67962;47.310;9.642;2023-07-20T12:41:02;29.10;32.30
78649;DHT22;67962;47.310;9.642;2023-07-20T12:43:28;29.00;33.10
78649;DHT22;67962;47.310;9.642;2023-07-20T12:45:55;29.10;33.70
78649;DHT22;67962;47.310;9.642;2023-07-20T12:48:21;29.10;32.60
78649;DHT22;67962;47.310;9.642;2023-07-20T12:50:47;29.00;33.50
78649;DHT22;67962;47.310;9.642;2023-07-20T12:53:13;29.10;33.30
78649;DHT22;67962;47.310;9.642;2023-07-20T12:55:39;29.00;32.90
78649;DHT22;67962;47.310;9.642;2023-07-20T12:58:06;29.00;35.20
78649;DHT22;67962;47.310;9.642;2023-07-20T13:00:32;29.00;35.30
78649;DHT22;67962;47.310;9.642;2023-07-20T13:02:57;29.00;33.40
78649;DHT22;67962;47.310;9.642;2023-07-20T13:05:23;28.70;32.60
78649;DHT22;67962;47.310;9.642;2023-07-20T13:07:49;28.70;35.70
78649;DHT22;67962;47.310;9.642;2023-07-20T13:10:15;28.60;34.50
78649;DHT22;67962;47.310;9.642;2023-07-20T13:12:41;28.40;34.40
78649;DHT22;67962;47.310;9.642;2023-07-20T13:15:09;28.40;34.90
78649;DHT22;67962;47.310;9.642;2023-07-20T13:17:36;28.50;36.10
78649;DHT22;67962;47.310;9.642;2023-07-20T13:20:03;28.60;34.70
78649;DHT22;67962;47.310;9.642;2023-07-20T13:22:32;28.60;35.70
78649;DHT22;67962;47.310;9.642;2023-07-20T13:24:59;28.70;36.50
78649;DHT22;67962;47.310;9.642;2023-07-20T13:27:25;28.80;35.50
78649;DHT22;67962;47.310;9.642;2023-07-20T13:29:51;28.80;34.00
78649;DHT22;67962;47.310;9.642;2023-07-20T13:32:18;28.70;34.00
78649;DHT22;67962;47.310;9.642;2023-07-20T13:34:46;28.60;35.30
78649;DHT22;67962;47.310;9.642;2023-07-20T13:37:12;28.60;36.10
78649;DHT22;67962;47.310;9.642;2023-07-20T13:39:38;28.50;34.00
78649;DHT22;67962;47.310;9.642;2023-07-20T13:42:05;28.40;34.70
78649;DHT22;67962;47.310;9.642;2023-07-20T13:44:34;28.50;35.30
78649;DHT22;67962;47.310;9.642;2023-07-20T13:47:03;28.50;34.10
78649;DHT22;67962;47.310;9.642;2023-07-20T13:49:31;28.40;35.30
78649;DHT22;67962;47.310;9.642;2023-07-20T13:51:58;28.40;33.90
78649;DHT22;67962;47.310;9.642;2023-07-20T13:54:24;28.30;34.80
78649;DHT22;67962;47.310;9.642;2023-07-20T13:56:50;28.30;35.70
78649;DHT22;67962;47.310;9.642;2023-07-20T13:59:17;28.30;33.80
78649;DHT22;67962;47.310;9.642;2023-07-20T14:01:43;28.10;34.70
78649;DHT22;67962;47.310;9.642;2023-07-20T14:04:08;28.10;36.20
78649;DHT22;67962;47.310;9.642;2023-07-20T14:06:34;28.20;35.90
78649;DHT22;67962;47.310;9.642;2023-07-20T14:09:01;28.00;34.80
78649;DHT22;67962;47.310;9.642;2023-07-20T14:11:27;27.90;35.00
78649;DHT22;67962;47.310;9.642;2023-07-20T14:13:53;27.90;34.80
78649;DHT22;67962;47.310;9.642;2023-07-20T14:16:20;27.90;36.10
78649;DHT22;67962;47.310;9.642;2023-07-20T14:18:45;28.00;35.80
78649;DHT22;67962;47.310;9.642;2023-07-20T14:21:15;28.20;35.10
78649;DHT22;67962;47.310;9.642;2023-07-20T14:23:41;28.40;36.50
78649;DHT22;67962;47.310;9.642;2023-07-20T14:26:06;28.50;34.40
78649;DHT22;67962;47.310;9.642;2023-07-20T14:28:34;28.20;33.80
78649;DHT22;67962;47.310;9.642;2023-07-20T14:31:00;28.00;35.30
78649;DHT22;67962;47.310;9.642;2023-07-20T14:33:26;28.00;34.20
78649;DHT22;67962;47.310;9.642;2023-07-20T14:35:52;28.00;34.90
78649;DHT22;67962;47.310;9.642;2023-07-20T14:38:17;28.10;35.00
78649;DHT22;67962;47.310;9.642;2023-07-20T14:40:43;28.10;35.80
78649;DHT22;67962;47.310;9.642;2023-07-20T14:43:10;28.00;35.00
78649;DHT22;67962;47.310;9.642;2023-07-20T14:45:36;28.00;35.30
78649;DHT22;67962;47.310;9.642;2023-07-20T14:48:03;28.00;34.90
78649;DHT22;67962;47.310;9.642;2023-07-20T14:50:29;28.00;35.40
78649;DHT22;67962;47.310;9.642;2023-07-20T14:52:55;28.00;35.20
78649;DHT22;67962;47.310;9.642;2023-07-20T14:55:20;28.10;35.90
78649;DHT22;67962;47.310;9.642;2023-07-20T14:57:48;28.10;36.90
78649;DHT22;67962;47.310;9.642;2023-07-20T15:00:14;27.90;36.00
78649;DHT22;67962;47.310;9.642;2023-07-20T15:02:40;28.00;34.70
78649;DHT22;67962;47.310;9.642;2023-07-20T15:05:07;27.90;35.00
78649;DHT22;67962;47.310;9.642;2023-07-20T15:07:33;27.90;34.90
78649;DHT22;67962;47.310;9.642;2023-07-20T15:09:59;27.90;35.90
78649;DHT22;67962;47.310;9.642;2023-07-20T15:12:24;28.00;35.40
78649;DHT22;67962;47.310;9.642;2023-07-20T15:15:03;28.10;35.90
78649;DHT22;67962;47.310;9.642;2023-07-20T15:17:32;28.10;36.10
78649;DHT22;67962;47.310;9.642;2023-07-20T15:19:58;28.10;35.30
78649;DHT22;67962;47.310;9.642;2023-07-20T15:22:25;28.10;35.00
78649;DHT22;67962;47.310;9.642;2023-07-20T15:24:51;27.90;35.00
78649;DHT22;67962;47.310;9.642;2023-07-20T15:27:16;28.00;35.90
78649;DHT22;67962;47.310;9.642;2023-07-20T15:29:42;28.20;37.30
78649;DHT22;67962;47.310;9.642;2023-07-20T15:32:09;28.10;35.10
78649;DHT22;67962;47.310;9.642;2023-07-20T15:34:35;28.00;35.40
78649;DHT22;67962;47.310;9.642;2023-07-20T15:37:01;28.10;35.10
78649;DHT22;67962;47.310;9.642;2023-07-20T15:39:26;28.00;36.00
78649;DHT22;67962;47.310;9.642;2023-07-20T15:41:52;27.90;35.60
78649;DHT22;67962;47.310;9.642;2023-07-20T15:44:18;27.90;36.10
78649;DHT22;67962;47.310;9.642;2023-07-20T15:46:46;28.10;35.20
78649;DHT22;67962;47.310;9.642;2023-07-20T15:49:12;28.00;36.70
78649;DHT22;67962;47.310;9.642;2023-07-20T15:51:38;27.90;34.60
78649;DHT22;67962;47.310;9.642;2023-07-20T15:54:05;27.80;35.10